createdAt,value
2018-07-13T00:02:07.636Z,9.83
2018-07-13T00:04:35.909Z,10.30
2018-07-13T00:07:04.242Z,9.27
2018-07-13T00:09:32.529Z,9.43
2018-07-13T00:12:00.791Z,10.30
2018-07-13T00:14:29.039Z,10.03
2018-07-13T00:16:58.437Z,10.10
2018-07-13T00:19:27.011Z,10.37
2018-07-13T00:21:55.296Z,10.07
2018-07-13T00:24:30.236Z,10.33
2018-07-13T00:26:58.525Z,9.73
2018-07-13T00:29:26.793Z,10.07
2018-07-13T00:31:55.128Z,10.53
2018-07-13T00:34:23.377Z,9.47
2018-07-13T00:36:51.839Z,9.27
2018-07-13T00:39:20.077Z,10.43
2018-07-13T00:41:48.315Z,10.47
2018-07-13T00:44:16.583Z,9.83
2018-07-13T00:46:44.868Z,10.23
2018-07-13T00:49:13.161Z,9.50
2018-07-13T00:51:41.423Z,9.67
2018-07-13T00:54:09.699Z,9.70
2018-07-13T00:56:38.034Z,10.53
2018-07-13T00:59:06.342Z,9.63
2018-07-13T01:01:34.660Z,10.20
2018-07-13T01:04:02.937Z,10.10
2018-07-13T01:06:31.211Z,8.77
2018-07-13T01:08:59.452Z,10.57
2018-07-13T01:11:27.698Z,10.50
2018-07-13T01:13:56.058Z,9.50
2018-07-13T01:16:24.358Z,10.60
2018-07-13T01:18:52.648Z,10.47
2018-07-13T01:21:21.004Z,10.37
2018-07-13T01:23:49.283Z,10.20
2018-07-13T01:26:17.542Z,11.33
2018-07-13T01:28:45.816Z,10.10
2018-07-13T01:31:14.073Z,10.73
2018-07-13T01:33:42.345Z,10.77
2018-07-13T01:36:10.597Z,10.30
2018-07-13T01:38:38.935Z,10.40
2018-07-13T01:41:07.209Z,10.67
2018-07-13T01:43:35.492Z,10.97
2018-07-13T01:46:03.735Z,9.93
2018-07-13T01:48:32.011Z,9.87
2018-07-13T01:51:00.289Z,9.00
2018-07-13T01:53:28.579Z,9.33
2018-07-13T01:55:58.313Z,9.73
2018-07-13T01:58:26.581Z,9.33
2018-07-13T02:00:54.847Z,8.97
2018-07-13T02:03:23.116Z,9.70
2018-07-13T02:05:51.382Z,10.03
2018-07-13T02:08:19.644Z,8.63
2018-07-13T02:10:47.919Z,9.87
2018-07-13T02:13:16.247Z,9.00
2018-07-13T02:15:44.512Z,9.07
2018-07-13T02:18:12.823Z,10.00
2018-07-13T02:20:41.096Z,8.93
2018-07-13T02:23:09.361Z,9.17
2018-07-13T02:25:37.633Z,8.67
2018-07-13T02:28:05.943Z,9.80
2018-07-13T02:30:34.207Z,8.80
2018-07-13T02:33:02.475Z,9.27
2018-07-13T02:35:30.745Z,10.00
2018-07-13T02:37:59.046Z,9.97
2018-07-13T02:40:27.316Z,9.03
2018-07-13T02:42:55.601Z,8.57
2018-07-13T02:45:23.869Z,9.47
2018-07-13T02:47:52.159Z,9.37
2018-07-13T02:50:20.423Z,9.03
2018-07-13T02:52:48.675Z,8.80
2018-07-13T02:55:16.949Z,9.20
2018-07-13T02:57:45.279Z,8.80
2018-07-13T03:00:13.581Z,9.07
2018-07-13T03:02:41.846Z,9.30
2018-07-13T03:05:10.128Z,8.73
2018-07-13T03:07:38.387Z,8.70
2018-07-13T03:10:06.649Z,9.13
2018-07-13T03:12:34.907Z,8.93
2018-07-13T03:15:06.184Z,9.77
2018-07-13T03:17:34.458Z,8.90
2018-07-13T03:20:03.099Z,9.07
2018-07-13T03:22:31.355Z,9.23
2018-07-13T03:24:59.604Z,8.60
2018-07-13T03:27:27.825Z,9.57
2018-07-13T03:29:56.073Z,10.00
2018-07-13T03:32:24.361Z,9.37
2018-07-13T03:34:52.639Z,9.43
2018-07-13T03:37:20.937Z,8.33
2018-07-13T03:39:49.200Z,8.90
2018-07-13T03:42:17.541Z,8.27
2018-07-13T03:44:45.837Z,8.30
2018-07-13T03:47:14.078Z,8.37
2018-07-13T03:49:42.327Z,8.40
2018-07-13T03:52:10.580Z,8.07
2018-07-13T03:54:38.848Z,7.83
2018-07-13T03:57:07.123Z,7.57
2018-07-13T03:59:35.437Z,7.90
2018-07-13T04:02:03.709Z,7.90
2018-07-13T04:04:32.005Z,7.90
2018-07-13T04:07:00.244Z,8.00
2018-07-13T04:09:28.530Z,6.97
2018-07-13T04:11:56.823Z,7.60
2018-07-13T04:14:25.088Z,8.13
2018-07-13T04:16:53.329Z,7.53
2018-07-13T04:19:21.586Z,7.60
2018-07-13T04:21:49.841Z,7.53
2018-07-13T04:24:18.111Z,8.13
2018-07-13T04:26:47.147Z,7.70
2018-07-13T04:29:15.445Z,7.73
2018-07-13T04:31:43.719Z,7.20
2018-07-13T04:34:12.093Z,7.30
2018-07-13T04:36:40.323Z,7.63
2018-07-13T04:39:10.072Z,8.73
2018-07-13T04:41:38.397Z,7.90
2018-07-13T04:44:07.155Z,8.30
2018-07-13T04:46:35.595Z,8.50
2018-07-13T04:49:04.055Z,7.57
2018-07-13T04:51:32.296Z,6.90
2018-07-13T04:54:00.566Z,8.10
2018-07-13T04:56:28.896Z,7.63
2018-07-13T04:58:57.177Z,7.57
2018-07-13T05:01:25.475Z,7.73
2018-07-13T05:03:53.825Z,7.63
2018-07-13T05:06:22.231Z,7.57
2018-07-13T05:08:50.559Z,7.10
2018-07-13T05:11:18.857Z,7.07
2018-07-13T05:13:47.242Z,7.60
2018-07-13T05:16:15.603Z,7.97
2018-07-13T05:18:43.943Z,7.67
2018-07-13T05:21:12.361Z,7.20
2018-07-13T05:23:40.706Z,7.53
2018-07-13T05:26:09.175Z,7.10
2018-07-13T05:28:37.457Z,7.43
2018-07-13T05:31:05.785Z,7.30
2018-07-13T05:33:34.173Z,7.33
2018-07-13T05:36:02.494Z,7.80
2018-07-13T05:38:30.770Z,6.57
2018-07-13T05:40:59.057Z,6.77
2018-07-13T05:43:27.375Z,6.93
2018-07-13T05:45:55.719Z,7.30
2018-07-13T05:48:24.069Z,7.30
2018-07-13T05:50:52.315Z,7.67
2018-07-13T05:53:20.583Z,7.37
2018-07-13T05:55:48.849Z,8.07
2018-07-13T05:58:17.105Z,7.53
2018-07-13T06:00:45.376Z,6.70
2018-07-13T06:03:13.649Z,6.53
2018-07-13T06:05:43.839Z,6.93
2018-07-13T06:08:12.668Z,6.40
2018-07-13T06:10:40.971Z,7.60
2018-07-13T06:13:09.214Z,6.83
2018-07-13T06:15:37.637Z,6.60
2018-07-13T06:18:06.287Z,7.17
2018-07-13T06:20:34.640Z,7.10
2018-07-13T06:23:02.923Z,6.80
2018-07-13T06:25:31.296Z,6.83
2018-07-13T06:27:59.595Z,6.27
2018-07-13T06:30:27.877Z,6.70
2018-07-13T06:32:56.240Z,6.30
2018-07-13T06:35:24.490Z,6.83
2018-07-13T06:37:52.944Z,7.00
2018-07-13T06:40:21.294Z,7.07
2018-07-13T06:42:49.803Z,6.97
2018-07-13T06:45:18.126Z,7.20
2018-07-13T06:47:46.391Z,6.80
2018-07-13T06:50:15.295Z,6.37
2018-07-13T06:52:43.565Z,6.67
2018-07-13T06:55:11.847Z,6.67
2018-07-13T06:57:51.460Z,7.37
2018-07-13T07:00:56.297Z,6.20
2018-07-13T07:03:25.353Z,6.97
2018-07-13T07:05:54.616Z,6.70
2018-07-13T07:08:22.887Z,7.27
2018-07-13T07:10:51.151Z,6.50
2018-07-13T07:13:26.803Z,6.67
2018-07-13T07:15:55.080Z,6.53
2018-07-13T07:18:23.379Z,6.23
2018-07-13T07:20:51.699Z,6.10
2018-07-13T07:23:19.973Z,6.17
2018-07-13T07:25:48.232Z,6.23
2018-07-13T07:28:16.535Z,6.47
2018-07-13T07:30:44.895Z,6.07
2018-07-13T07:33:13.196Z,5.90
2018-07-13T07:35:41.506Z,5.27
2018-07-13T07:38:09.780Z,6.10
2018-07-13T07:40:38.076Z,4.83
2018-07-13T07:43:06.396Z,5.93
2018-07-13T07:45:34.711Z,5.97
2018-07-13T07:48:02.972Z,4.80
2018-07-13T07:50:31.232Z,5.33
2018-07-13T07:52:59.494Z,5.27
2018-07-13T07:55:27.801Z,5.00
2018-07-13T07:57:56.079Z,4.83
2018-07-13T08:00:24.385Z,5.20
2018-07-13T08:02:52.748Z,5.87
2018-07-13T08:05:21.013Z,5.70
2018-07-13T08:07:49.277Z,5.10
2018-07-13T08:10:17.570Z,5.50
2018-07-13T08:12:45.832Z,5.27
2018-07-13T08:15:14.171Z,5.23
2018-07-13T08:17:42.457Z,5.23
2018-07-13T08:20:10.800Z,5.53
2018-07-13T08:22:45.098Z,5.00
2018-07-13T08:25:14.306Z,4.97
2018-07-13T08:27:44.748Z,5.60
2018-07-13T08:30:15.637Z,4.97
2018-07-13T08:32:43.967Z,4.97
2018-07-13T08:35:12.216Z,4.47
2018-07-13T08:37:40.518Z,4.83
2018-07-13T08:40:08.847Z,4.70
2018-07-13T08:42:37.231Z,4.57
2018-07-13T08:45:05.508Z,4.70
2018-07-13T08:47:33.832Z,4.87
2018-07-13T08:50:02.140Z,4.27
2018-07-13T08:52:30.568Z,4.17
2018-07-13T08:55:04.374Z,4.60
2018-07-13T08:57:32.740Z,5.10
2018-07-13T09:00:01.173Z,4.83
2018-07-13T09:02:29.501Z,4.67
2018-07-13T09:04:57.831Z,4.37
2018-07-13T09:07:26.163Z,4.60
2018-07-13T09:09:54.616Z,4.97
2018-07-13T09:12:22.963Z,4.90
2018-07-13T09:14:51.365Z,4.80
2018-07-13T09:17:19.704Z,5.27
2018-07-13T09:19:47.959Z,4.70
2018-07-13T09:22:16.279Z,4.97
2018-07-13T09:24:44.659Z,4.93
2018-07-13T09:27:12.979Z,4.90
2018-07-13T09:29:41.331Z,4.47
2018-07-13T09:32:09.651Z,4.87
2018-07-13T09:34:38.003Z,4.97
2018-07-13T09:37:06.399Z,4.40
2018-07-13T09:39:34.746Z,5.27
2018-07-13T09:42:03.097Z,4.93
2018-07-13T09:44:31.488Z,4.57
2018-07-13T09:47:00.075Z,4.47
2018-07-13T09:49:28.311Z,4.80
2018-07-13T09:51:56.672Z,4.30
2018-07-13T09:54:25.413Z,4.00
2018-07-13T09:56:53.887Z,4.27
2018-07-13T09:59:22.357Z,4.43
2018-07-13T10:01:50.749Z,4.83
2018-07-13T10:04:19.045Z,3.80
